»·PEaware :: SWA1743 KLAS-KSNA

SWA1743 :: KLAS-KSNA

FLIGHT INFORMATION

Flight Status: Arrived
Operator:
Southwest Airlines
More flights by this operator :: More flights under this callsign
Pilot: Ben F. (2808)
Aircraft: BOEING 737-300
(B733)
More flights by this aircraft type
Origin: KLAS McCarran Intl
United States
Destination: KSNA John Wayne-Orange Co
United States
More flights between these airports :: More routes between these airports
Route: BOACH8 WHIGG FEYLA DSNEE1
File this flight plan on PilotEdge
Remarks: PBN / A1B3B4B5D3D4 NAV / RNVD1E2A1 REG / N372SB RMK / SIMBRIEF
Altitude:
(Current/Filed)
28,000ft
Speed:
(Current/Filed)
456kts
Departed: 20-Nov-17 08:44 AM
Arrived: 20-Nov-17 09:26 AM
Distance/Time
Traveled:
197nm/0:41
Distance/Time
To Go:
Arrived

Flight Plot

Page will automatically refresh every two minutes.

Flight plan parsing failed; only flown route is shown


Map Options




Map Legend


Flown Route
Filed Route
Departure Airport
Arrival Airport
Navaid (VOR, NDB)
Fix

Horizontal Profiles

Position Reports

Time Latitude Longitude Heading Altitude Ground
Speed
20-Nov-17 08:32 36.079781 -115.146272 342 2187ft 0kts
20-Nov-17 08:33 36.079781 -115.146272 342 2187ft 0kts
20-Nov-17 08:34 36.079781 -115.146272 342 2187ft 0kts
20-Nov-17 08:35 36.079781 -115.146272 342 2187ft 0kts
20-Nov-17 08:36 36.079781 -115.146272 342 2187ft 0kts
20-Nov-17 08:37 36.079781 -115.146272 342 2187ft 0kts
20-Nov-17 08:38 36.079781 -115.146272 342 2187ft 0kts
20-Nov-17 08:39 36.079769 -115.146269 344 2187ft 0kts
20-Nov-17 08:40 36.079371 -115.146074 334 2187ft 2kts
20-Nov-17 08:41 36.079088 -115.145474 265 2187ft 2kts
20-Nov-17 08:42 36.079418 -115.144912 199 2188ft 2kts
20-Nov-17 08:43 36.079629 -115.144872 180 2187ft 0kts
20-Nov-17 08:44 36.079610 -115.144872 180 2187ft 1kts
20-Nov-17 08:45 36.077584 -115.144178 108 2187ft 16kts
20-Nov-17 08:46 36.077508 -115.135058 89 2187ft 27kts
20-Nov-17 08:47 36.077524 -115.125744 89 2187ft 26kts
20-Nov-17 08:48 36.077347 -115.121414 147 2188ft 0kts
20-Nov-17 08:49 36.076401 -115.129390 270 2187ft 106kts
20-Nov-17 08:50 36.077028 -115.183694 270 3647ft 167kts
20-Nov-17 08:51 36.071490 -115.244861 237 5072ft 219kts
20-Nov-17 08:52 36.008992 -115.283967 201 6702ft 277kts
20-Nov-17 08:53 35.934058 -115.306088 186 9642ft 285kts
20-Nov-17 08:54 35.854317 -115.314571 179 11818ft 315kts
20-Nov-17 08:55 35.762352 -115.304233 179 13855ft 351kts
20-Nov-17 08:56 35.666361 -115.313829 219 16237ft 348kts
20-Nov-17 08:57 35.600112 -115.399706 231 18680ft 351kts
20-Nov-17 08:58 35.533637 -115.489161 231 20867ft 360kts
20-Nov-17 08:59 35.465419 -115.580943 232 22857ft 369kts
20-Nov-17 09:00 35.400916 -115.667844 232 24547ft 377kts
20-Nov-17 09:01 35.331282 -115.761667 232 26248ft 385kts
20-Nov-17 09:02 35.258358 -115.859414 233 27844ft 393kts
20-Nov-17 09:03 35.182603 -115.957333 231 28166ft 397kts
20-Nov-17 09:04 35.105573 -116.054499 231 28169ft 401kts
20-Nov-17 09:05 35.029056 -116.150776 231 28155ft 397kts
20-Nov-17 09:06 34.952104 -116.247347 231 28158ft 397kts
20-Nov-17 09:07 34.877576 -116.340553 231 28147ft 397kts
20-Nov-17 09:08 34.806138 -116.431185 232 28159ft 397kts
20-Nov-17 09:09 34.729924 -116.528139 232 26591ft 396kts
20-Nov-17 09:10 34.648927 -116.618287 224 24582ft 385kts
20-Nov-17 09:11 34.573455 -116.692040 224 23603ft 365kts
20-Nov-17 09:12 34.497008 -116.767738 228 21778ft 347kts
20-Nov-17 09:13 34.429907 -116.845995 228 21942ft 352kts
20-Nov-17 09:14 34.361381 -116.925453 228 20627ft 351kts
20-Nov-17 09:15 34.294042 -117.002996 228 19835ft 327kts
20-Nov-17 09:16 34.221132 -117.067159 214 17867ft 369kts
20-Nov-17 09:17 34.127992 -117.126000 207 13141ft 388kts
20-Nov-17 09:18 34.041176 -117.172253 208 12823ft 313kts
20-Nov-17 09:19 33.973560 -117.228296 233 12305ft 288kts
20-Nov-17 09:20 33.922303 -117.300314 233 11150ft 284kts
20-Nov-17 09:21 33.874260 -117.368053 233 9695ft 274kts
20-Nov-17 09:22 33.827617 -117.433901 233 8184ft 252kts
20-Nov-17 09:23 33.820923 -117.513801 272 7047ft 239kts
20-Nov-17 09:24 33.822974 -117.590925 272 6048ft 227kts
20-Nov-17 09:25 33.824250 -117.658094 271 4995ft 223kts
20-Nov-17 09:26 33.825675 -117.722087 271 3867ft 212kts
20-Nov-17 09:27 33.819476 -117.784833 215 2972ft 177kts
20-Nov-17 09:28 33.776862 -117.805503 203 2549ft 165kts
20-Nov-17 09:29 33.738689 -117.829805 206 1288ft 147kts
20-Nov-17 09:30 33.703230 -117.851411 209 652ft 147kts
20-Nov-17 09:31 33.671046 -117.871804 208 63ft 39kts
20-Nov-17 09:32 33.669100 -117.871555 121 63ft 1kts
20-Nov-17 09:33 33.672739 -117.867641 38 63ft 24kts
20-Nov-17 09:34 33.675273 -117.864891 117 63ft 0kts
20-Nov-17 09:35 33.675273 -117.864891 117 63ft 0kts

Navigation Log

Ident Type
Flight plan parsing failed, navigation log unavailable